sensor_id;sensor_type;location;lat;lon;timestamp;pressure;altitude;pressure_sealevel;temperature
28803;BMP280;15949;55.656;37.422;2023-05-07T00:01:57;100515.81;;;-1.38
28803;BMP280;15949;55.656;37.422;2023-05-07T00:07:03;100512.72;;;-1.40
28803;BMP280;15949;55.656;37.422;2023-05-07T00:12:09;100520.66;;;-1.48
28803;BMP280;15949;55.656;37.422;2023-05-07T00:17:15;100516.44;;;-1.54
28803;BMP280;15949;55.656;37.422;2023-05-07T00:22:21;100512.59;;;-1.63
28803;BMP280;15949;55.656;37.422;2023-05-07T00:27:26;100518.00;;;-1.53
28803;BMP280;15949;55.656;37.422;2023-05-07T00:32:32;100519.84;;;-1.60
28803;BMP280;15949;55.656;37.422;2023-05-07T00:37:38;100522.31;;;-1.54
28803;BMP280;15949;55.656;37.422;2023-05-07T00:42:44;100531.31;;;-1.51
28803;BMP280;15949;55.656;37.422;2023-05-07T00:47:55;100531.75;;;-1.54
28803;BMP280;15949;55.656;37.422;2023-05-07T00:53:01;100523.25;;;-1.66
28803;BMP280;15949;55.656;37.422;2023-05-07T00:58:06;100529.66;;;-1.75
28803;BMP280;15949;55.656;37.422;2023-05-07T01:03:12;100519.41;;;-1.75
28803;BMP280;15949;55.656;37.422;2023-05-07T01:08:18;100529.38;;;-1.67
28803;BMP280;15949;55.656;37.422;2023-05-07T01:13:24;100533.06;;;-1.63
28803;BMP280;15949;55.656;37.422;2023-05-07T01:18:30;100536.53;;;-1.58
28803;BMP280;15949;55.656;37.422;2023-05-07T01:23:36;100535.31;;;-1.55
28803;BMP280;15949;55.656;37.422;2023-05-07T01:28:42;100544.09;;;-1.51
28803;BMP280;15949;55.656;37.422;2023-05-07T01:33:48;100542.53;;;-1.52
28803;BMP280;15949;55.656;37.422;2023-05-07T01:38:55;100544.19;;;-1.58
28803;BMP280;15949;55.656;37.422;2023-05-07T01:44:03;100551.88;;;-1.58
28803;BMP280;15949;55.656;37.422;2023-05-07T01:49:10;100553.41;;;-1.57
28803;BMP280;15949;55.656;37.422;2023-05-07T01:54:16;100558.75;;;-1.58
28803;BMP280;15949;55.656;37.422;2023-05-07T01:59:22;100562.16;;;-1.64
28803;BMP280;15949;55.656;37.422;2023-05-07T02:04:27;100570.91;;;-1.72
28803;BMP280;15949;55.656;37.422;2023-05-07T02:09:33;100580.00;;;-1.76
28803;BMP280;15949;55.656;37.422;2023-05-07T02:14:39;100580.97;;;-1.77
28803;BMP280;15949;55.656;37.422;2023-05-07T02:19:44;100586.28;;;-1.79
28803;BMP280;15949;55.656;37.422;2023-05-07T02:24:50;100590.22;;;-1.76
28803;BMP280;15949;55.656;37.422;2023-05-07T02:29:56;100597.28;;;-1.78
28803;BMP280;15949;55.656;37.422;2023-05-07T02:35:02;100600.91;;;-1.86
28803;BMP280;15949;55.656;37.422;2023-05-07T02:40:08;100602.84;;;-1.81
28803;BMP280;15949;55.656;37.422;2023-05-07T02:45:13;100604.91;;;-1.71
28803;BMP280;15949;55.656;37.422;2023-05-07T02:50:20;100603.09;;;-1.71
28803;BMP280;15949;55.656;37.422;2023-05-07T02:55:25;100615.69;;;-1.69
28803;BMP280;15949;55.656;37.422;2023-05-07T03:00:31;100617.25;;;-1.68
28803;BMP280;15949;55.656;37.422;2023-05-07T03:05:37;100611.69;;;-1.65
28803;BMP280;15949;55.656;37.422;2023-05-07T03:10:43;100616.66;;;-1.52
28803;BMP280;15949;55.656;37.422;2023-05-07T03:15:48;100623.63;;;-1.41
28803;BMP280;15949;55.656;37.422;2023-05-07T03:20:54;100619.56;;;-1.30
28803;BMP280;15949;55.656;37.422;2023-05-07T03:26:00;100636.72;;;-1.19
28803;BMP280;15949;55.656;37.422;2023-05-07T03:31:05;100635.78;;;-1.07
28803;BMP280;15949;55.656;37.422;2023-05-07T03:36:11;100646.84;;;-0.95
28803;BMP280;15949;55.656;37.422;2023-05-07T03:41:17;100644.28;;;-0.95
28803;BMP280;15949;55.656;37.422;2023-05-07T03:46:23;100645.28;;;-0.84
28803;BMP280;15949;55.656;37.422;2023-05-07T03:51:31;100647.78;;;-0.77
28803;BMP280;15949;55.656;37.422;2023-05-07T03:56:37;100654.53;;;-0.83
28803;BMP280;15949;55.656;37.422;2023-05-07T04:01:42;100669.72;;;-0.70
28803;BMP280;15949;55.656;37.422;2023-05-07T04:06:48;100668.53;;;-0.56
28803;BMP280;15949;55.656;37.422;2023-05-07T04:11:54;100669.44;;;-0.39
28803;BMP280;15949;55.656;37.422;2023-05-07T04:17:00;100675.13;;;-0.25
28803;BMP280;15949;55.656;37.422;2023-05-07T04:22:05;100679.59;;;-0.09
28803;BMP280;15949;55.656;37.422;2023-05-07T04:27:11;100686.72;;;0.13
28803;BMP280;15949;55.656;37.422;2023-05-07T04:32:17;100690.59;;;0.38
28803;BMP280;15949;55.656;37.422;2023-05-07T04:37:23;100682.00;;;0.33
28803;BMP280;15949;55.656;37.422;2023-05-07T04:42:28;100691.00;;;0.59
28803;BMP280;15949;55.656;37.422;2023-05-07T04:47:34;100690.28;;;0.75
28803;BMP280;15949;55.656;37.422;2023-05-07T04:52:40;100695.25;;;0.81
28803;BMP280;15949;55.656;37.422;2023-05-07T04:57:45;100696.03;;;0.82
28803;BMP280;15949;55.656;37.422;2023-05-07T05:02:51;100695.16;;;1.04
28803;BMP280;15949;55.656;37.422;2023-05-07T05:07:57;100701.59;;;1.35
28803;BMP280;15949;55.656;37.422;2023-05-07T05:13:02;100699.44;;;1.44
28803;BMP280;15949;55.656;37.422;2023-05-07T05:18:08;100697.75;;;1.71
28803;BMP280;15949;55.656;37.422;2023-05-07T05:23:14;100707.44;;;2.02
28803;BMP280;15949;55.656;37.422;2023-05-07T05:28:20;100707.50;;;2.24
28803;BMP280;15949;55.656;37.422;2023-05-07T05:33:25;100706.94;;;2.44
28803;BMP280;15949;55.656;37.422;2023-05-07T05:38:31;100709.94;;;2.58
28803;BMP280;15949;55.656;37.422;2023-05-07T05:43:37;100714.13;;;3.17
28803;BMP280;15949;55.656;37.422;2023-05-07T05:48:42;100704.75;;;3.38
28803;BMP280;15949;55.656;37.422;2023-05-07T05:53:48;100709.63;;;3.71
28803;BMP280;15949;55.656;37.422;2023-05-07T05:58:54;100718.66;;;4.21
28803;BMP280;15949;55.656;37.422;2023-05-07T06:04:00;100719.19;;;4.33
28803;BMP280;15949;55.656;37.422;2023-05-07T06:09:05;100715.69;;;4.74
28803;BMP280;15949;55.656;37.422;2023-05-07T06:14:11;100724.53;;;5.03
28803;BMP280;15949;55.656;37.422;2023-05-07T06:19:17;100723.47;;;5.20
28803;BMP280;15949;55.656;37.422;2023-05-07T06:24:28;100732.75;;;4.80
28803;BMP280;15949;55.656;37.422;2023-05-07T06:29:34;100731.13;;;4.44
28803;BMP280;15949;55.656;37.422;2023-05-07T06:34:40;100723.72;;;5.23
28803;BMP280;15949;55.656;37.422;2023-05-07T06:39:46;100720.28;;;5.73
28803;BMP280;15949;55.656;37.422;2023-05-07T06:44:52;100727.88;;;5.34
28803;BMP280;15949;55.656;37.422;2023-05-07T06:49:58;100727.03;;;5.54
28803;BMP280;15949;55.656;37.422;2023-05-07T06:55:04;100727.59;;;5.16
28803;BMP280;15949;55.656;37.422;2023-05-07T07:00:10;100720.34;;;5.28
28803;BMP280;15949;55.656;37.422;2023-05-07T07:05:16;100726.31;;;4.93
28803;BMP280;15949;55.656;37.422;2023-05-07T07:10:22;100723.44;;;4.74
28803;BMP280;15949;55.656;37.422;2023-05-07T07:15:28;100723.25;;;5.26
28803;BMP280;15949;55.656;37.422;2023-05-07T07:20:34;100722.47;;;5.26
28803;BMP280;15949;55.656;37.422;2023-05-07T07:25:40;100723.97;;;4.91
28803;BMP280;15949;55.656;37.422;2023-05-07T07:30:46;100721.06;;;5.58
28803;BMP280;15949;55.656;37.422;2023-05-07T07:35:51;100720.81;;;5.60
28803;BMP280;15949;55.656;37.422;2023-05-07T07:40:57;100716.84;;;6.52
28803;BMP280;15949;55.656;37.422;2023-05-07T07:46:02;100711.91;;;6.84
28803;BMP280;15949;55.656;37.422;2023-05-07T07:51:08;100715.06;;;6.81
28803;BMP280;15949;55.656;37.422;2023-05-07T07:56:14;100713.75;;;6.45
28803;BMP280;15949;55.656;37.422;2023-05-07T08:01:20;100704.59;;;6.62
28803;BMP280;15949;55.656;37.422;2023-05-07T08:06:26;100717.00;;;6.99
28803;BMP280;15949;55.656;37.422;2023-05-07T08:11:32;100710.22;;;7.56
28803;BMP280;15949;55.656;37.422;2023-05-07T08:16:37;100708.28;;;7.43
28803;BMP280;15949;55.656;37.422;2023-05-07T08:21:43;100712.06;;;6.69
28803;BMP280;15949;55.656;37.422;2023-05-07T08:26:48;100709.22;;;6.21
28803;BMP280;15949;55.656;37.422;2023-05-07T08:31:55;100713.75;;;7.17
28803;BMP280;15949;55.656;37.422;2023-05-07T08:37:00;100689.97;;;8.00
28803;BMP280;15949;55.656;37.422;2023-05-07T08:42:06;100702.50;;;8.49
28803;BMP280;15949;55.656;37.422;2023-05-07T08:47:13;100690.41;;;8.58
28803;BMP280;15949;55.656;37.422;2023-05-07T08:52:19;100690.47;;;7.60
28803;BMP280;15949;55.656;37.422;2023-05-07T08:57:25;100700.03;;;7.12
28803;BMP280;15949;55.656;37.422;2023-05-07T09:02:30;100694.91;;;7.97
28803;BMP280;15949;55.656;37.422;2023-05-07T09:07:36;100695.63;;;8.02
28803;BMP280;15949;55.656;37.422;2023-05-07T09:12:42;100692.00;;;8.03
28803;BMP280;15949;55.656;37.422;2023-05-07T09:17:47;100688.84;;;8.57
28803;BMP280;15949;55.656;37.422;2023-05-07T09:22:55;100697.19;;;7.37
28803;BMP280;15949;55.656;37.422;2023-05-07T09:28:02;100694.06;;;8.01
28803;BMP280;15949;55.656;37.422;2023-05-07T09:33:08;100692.47;;;9.07
28803;BMP280;15949;55.656;37.422;2023-05-07T09:38:13;100676.09;;;8.42
28803;BMP280;15949;55.656;37.422;2023-05-07T09:43:19;100694.00;;;7.87
28803;BMP280;15949;55.656;37.422;2023-05-07T09:48:25;100691.00;;;7.57
28803;BMP280;15949;55.656;37.422;2023-05-07T09:53:33;100686.59;;;8.69
28803;BMP280;15949;55.656;37.422;2023-05-07T09:58:40;100686.28;;;9.17
28803;BMP280;15949;55.656;37.422;2023-05-07T10:03:46;100686.81;;;8.86
28803;BMP280;15949;55.656;37.422;2023-05-07T10:08:53;100682.84;;;8.43
28803;BMP280;15949;55.656;37.422;2023-05-07T10:14:00;100677.03;;;8.32
28803;BMP280;15949;55.656;37.422;2023-05-07T10:19:11;100683.19;;;9.42
28803;BMP280;15949;55.656;37.422;2023-05-07T10:24:21;100674.69;;;8.95
28803;BMP280;15949;55.656;37.422;2023-05-07T10:34:39;100684.91;;;7.90
28803;BMP280;15949;55.656;37.422;2023-05-07T10:39:46;100686.38;;;9.52
28803;BMP280;15949;55.656;37.422;2023-05-07T10:44:51;100686.22;;;9.85
28803;BMP280;15949;55.656;37.422;2023-05-07T11:05:32;100684.69;;;8.24
28803;BMP280;15949;55.656;37.422;2023-05-07T11:10:55;100694.34;;;8.18
28803;BMP280;15949;55.656;37.422;2023-05-07T11:16:01;100693.50;;;8.09
28803;BMP280;15949;55.656;37.422;2023-05-07T11:21:08;100684.69;;;7.86
28803;BMP280;15949;55.656;37.422;2023-05-07T11:26:13;100685.31;;;7.97
28803;BMP280;15949;55.656;37.422;2023-05-07T11:31:24;100683.00;;;7.96
28803;BMP280;15949;55.656;37.422;2023-05-07T11:36:32;100686.44;;;8.10
28803;BMP280;15949;55.656;37.422;2023-05-07T11:41:38;100682.16;;;8.70
28803;BMP280;15949;55.656;37.422;2023-05-07T11:46:44;100686.63;;;10.45
28803;BMP280;15949;55.656;37.422;2023-05-07T11:51:50;100687.88;;;11.09
28803;BMP280;15949;55.656;37.422;2023-05-07T11:56:56;100692.03;;;10.04
28803;BMP280;15949;55.656;37.422;2023-05-07T12:02:01;100685.69;;;9.60
28803;BMP280;15949;55.656;37.422;2023-05-07T12:07:16;100693.50;;;9.06
28803;BMP280;15949;55.656;37.422;2023-05-07T12:12:23;100679.91;;;9.09
28803;BMP280;15949;55.656;37.422;2023-05-07T12:17:29;100690.13;;;9.05
28803;BMP280;15949;55.656;37.422;2023-05-07T12:22:35;100690.56;;;10.56
28803;BMP280;15949;55.656;37.422;2023-05-07T12:27:40;100687.53;;;10.62
28803;BMP280;15949;55.656;37.422;2023-05-07T12:32:46;100684.69;;;10.06
28803;BMP280;15949;55.656;37.422;2023-05-07T12:37:58;100686.47;;;9.20
28803;BMP280;15949;55.656;37.422;2023-05-07T12:43:05;100674.47;;;8.78
28803;BMP280;15949;55.656;37.422;2023-05-07T12:48:11;100675.25;;;8.46
28803;BMP280;15949;55.656;37.422;2023-05-07T12:53:19;100670.31;;;8.31
28803;BMP280;15949;55.656;37.422;2023-05-07T12:58:29;100683.75;;;8.33
28803;BMP280;15949;55.656;37.422;2023-05-07T13:03:36;100686.84;;;8.54
28803;BMP280;15949;55.656;37.422;2023-05-07T13:08:42;100675.50;;;8.31
28803;BMP280;15949;55.656;37.422;2023-05-07T13:13:50;100676.03;;;9.61
28803;BMP280;15949;55.656;37.422;2023-05-07T13:18:56;100675.00;;;10.73
28803;BMP280;15949;55.656;37.422;2023-05-07T13:24:01;100678.56;;;10.24
28803;BMP280;15949;55.656;37.422;2023-05-07T13:29:07;100677.16;;;10.79
28803;BMP280;15949;55.656;37.422;2023-05-07T13:34:12;100682.19;;;11.07
28803;BMP280;15949;55.656;37.422;2023-05-07T13:39:18;100679.84;;;11.62
28803;BMP280;15949;55.656;37.422;2023-05-07T13:44:24;100686.59;;;10.89
28803;BMP280;15949;55.656;37.422;2023-05-07T13:49:29;100687.22;;;10.11
28803;BMP280;15949;55.656;37.422;2023-05-07T13:54:35;100682.81;;;10.20
28803;BMP280;15949;55.656;37.422;2023-05-07T13:59:41;100679.88;;;9.77
28803;BMP280;15949;55.656;37.422;2023-05-07T14:04:46;100685.56;;;9.79
28803;BMP280;15949;55.656;37.422;2023-05-07T14:09:52;100685.63;;;9.88
28803;BMP280;15949;55.656;37.422;2023-05-07T14:14:57;100687.06;;;10.60
28803;BMP280;15949;55.656;37.422;2023-05-07T14:20:03;100679.63;;;10.76
28803;BMP280;15949;55.656;37.422;2023-05-07T14:25:10;100670.41;;;11.18
28803;BMP280;15949;55.656;37.422;2023-05-07T14:30:15;100664.31;;;10.83
28803;BMP280;15949;55.656;37.422;2023-05-07T14:35:22;100674.88;;;10.78
28803;BMP280;15949;55.656;37.422;2023-05-07T14:40:27;100679.72;;;9.96
28803;BMP280;15949;55.656;37.422;2023-05-07T14:45:33;100674.69;;;9.09
28803;BMP280;15949;55.656;37.422;2023-05-07T14:50:38;100669.22;;;8.65
28803;BMP280;15949;55.656;37.422;2023-05-07T14:55:44;100680.72;;;8.31
28803;BMP280;15949;55.656;37.422;2023-05-07T15:00:50;100675.22;;;8.14
28803;BMP280;15949;55.656;37.422;2023-05-07T15:05:56;100678.03;;;7.99
28803;BMP280;15949;55.656;37.422;2023-05-07T15:11:01;100682.31;;;7.90
28803;BMP280;15949;55.656;37.422;2023-05-07T15:16:07;100675.81;;;7.87
28803;BMP280;15949;55.656;37.422;2023-05-07T15:21:12;100679.81;;;7.80
28803;BMP280;15949;55.656;37.422;2023-05-07T15:26:18;100678.28;;;7.79
28803;BMP280;15949;55.656;37.422;2023-05-07T15:31:24;100673.78;;;7.66
28803;BMP280;15949;55.656;37.422;2023-05-07T15:36:30;100683.28;;;7.52
28803;BMP280;15949;55.656;37.422;2023-05-07T15:41:36;100681.78;;;7.46
28803;BMP280;15949;55.656;37.422;2023-05-07T15:46:42;100681.41;;;8.51
28803;BMP280;15949;55.656;37.422;2023-05-07T15:51:47;100677.91;;;8.41
28803;BMP280;15949;55.656;37.422;2023-05-07T15:56:53;100688.25;;;7.72
28803;BMP280;15949;55.656;37.422;2023-05-07T16:01:59;100686.88;;;7.32
28803;BMP280;15949;55.656;37.422;2023-05-07T16:07:05;100685.69;;;7.19
28803;BMP280;15949;55.656;37.422;2023-05-07T16:12:11;100688.06;;;7.16
28803;BMP280;15949;55.656;37.422;2023-05-07T16:17:17;100697.22;;;7.08
28803;BMP280;15949;55.656;37.422;2023-05-07T16:22:22;100694.06;;;7.11
28803;BMP280;15949;55.656;37.422;2023-05-07T16:27:30;100700.09;;;7.02
28803;BMP280;15949;55.656;37.422;2023-05-07T16:32:35;100702.41;;;7.08
28803;BMP280;15949;55.656;37.422;2023-05-07T16:37:41;100703.91;;;7.14
28803;BMP280;15949;55.656;37.422;2023-05-07T16:42:46;100699.94;;;7.22
28803;BMP280;15949;55.656;37.422;2023-05-07T16:47:52;100715.81;;;7.15
28803;BMP280;15949;55.656;37.422;2023-05-07T16:52:58;100704.81;;;7.00
28803;BMP280;15949;55.656;37.422;2023-05-07T16:58:08;100706.03;;;6.79
28803;BMP280;15949;55.656;37.422;2023-05-07T17:03:14;100711.13;;;6.55
28803;BMP280;15949;55.656;37.422;2023-05-07T17:08:19;100724.75;;;6.27
28803;BMP280;15949;55.656;37.422;2023-05-07T17:13:25;100718.66;;;6.02
28803;BMP280;15949;55.656;37.422;2023-05-07T17:18:30;100722.34;;;5.76
28803;BMP280;15949;55.656;37.422;2023-05-07T17:23:36;100729.13;;;5.62
28803;BMP280;15949;55.656;37.422;2023-05-07T17:28:41;100736.13;;;5.46
28803;BMP280;15949;55.656;37.422;2023-05-07T17:33:47;100734.31;;;5.32
28803;BMP280;15949;55.656;37.422;2023-05-07T17:38:52;100736.38;;;5.20
28803;BMP280;15949;55.656;37.422;2023-05-07T17:44:00;100736.38;;;5.09
28803;BMP280;15949;55.656;37.422;2023-05-07T17:49:05;100732.75;;;5.00
28803;BMP280;15949;55.656;37.422;2023-05-07T17:54:11;100742.34;;;4.90
28803;BMP280;15949;55.656;37.422;2023-05-07T17:59:16;100737.38;;;4.68
28803;BMP280;15949;55.656;37.422;2023-05-07T18:04:22;100745.84;;;4.48
28803;BMP280;15949;55.656;37.422;2023-05-07T18:09:30;100748.13;;;4.40
28803;BMP280;15949;55.656;37.422;2023-05-07T18:14:36;100751.47;;;4.30
28803;BMP280;15949;55.656;37.422;2023-05-07T18:19:42;100756.53;;;4.10
28803;BMP280;15949;55.656;37.422;2023-05-07T18:24:48;100762.31;;;3.85
28803;BMP280;15949;55.656;37.422;2023-05-07T18:29:54;100758.06;;;3.69
28803;BMP280;15949;55.656;37.422;2023-05-07T18:35:00;100761.72;;;3.73
28803;BMP280;15949;55.656;37.422;2023-05-07T18:40:06;100772.69;;;3.59
28803;BMP280;15949;55.656;37.422;2023-05-07T18:45:12;100769.53;;;3.51
28803;BMP280;15949;55.656;37.422;2023-05-07T18:50:18;100779.78;;;3.46
28803;BMP280;15949;55.656;37.422;2023-05-07T18:55:24;100779.53;;;3.43
28803;BMP280;15949;55.656;37.422;2023-05-07T19:00:30;100783.13;;;3.42
28803;BMP280;15949;55.656;37.422;2023-05-07T19:05:35;100773.31;;;3.39
28803;BMP280;15949;55.656;37.422;2023-05-07T19:10:41;100778.03;;;3.20
28803;BMP280;15949;55.656;37.422;2023-05-07T19:15:46;100781.88;;;3.18
28803;BMP280;15949;55.656;37.422;2023-05-07T19:20:52;100779.91;;;3.03
28803;BMP280;15949;55.656;37.422;2023-05-07T19:25:58;100786.84;;;2.97
28803;BMP280;15949;55.656;37.422;2023-05-07T19:31:04;100793.94;;;2.85
28803;BMP280;15949;55.656;37.422;2023-05-07T19:36:09;100793.78;;;2.75
28803;BMP280;15949;55.656;37.422;2023-05-07T19:41:15;100791.50;;;2.57
28803;BMP280;15949;55.656;37.422;2023-05-07T19:46:21;100802.72;;;2.46
28803;BMP280;15949;55.656;37.422;2023-05-07T19:51:26;100805.16;;;2.36
28803;BMP280;15949;55.656;37.422;2023-05-07T19:56:36;100816.50;;;2.40
28803;BMP280;15949;55.656;37.422;2023-05-07T20:01:44;100815.50;;;2.41
28803;BMP280;15949;55.656;37.422;2023-05-07T20:06:49;100812.91;;;2.41
28803;BMP280;15949;55.656;37.422;2023-05-07T20:11:55;100820.66;;;2.41
28803;BMP280;15949;55.656;37.422;2023-05-07T20:17:01;100826.22;;;2.33
28803;BMP280;15949;55.656;37.422;2023-05-07T20:22:07;100828.03;;;2.16
28803;BMP280;15949;55.656;37.422;2023-05-07T20:27:12;100823.81;;;1.93
28803;BMP280;15949;55.656;37.422;2023-05-07T20:32:18;100834.72;;;1.83
28803;BMP280;15949;55.656;37.422;2023-05-07T20:37:23;100837.94;;;1.62
28803;BMP280;15949;55.656;37.422;2023-05-07T20:42:30;100838.59;;;1.41
28803;BMP280;15949;55.656;37.422;2023-05-07T20:47:36;100843.88;;;1.34
28803;BMP280;15949;55.656;37.422;2023-05-07T20:52:41;100853.16;;;1.24
28803;BMP280;15949;55.656;37.422;2023-05-07T20:57:47;100859.84;;;1.36
28803;BMP280;15949;55.656;37.422;2023-05-07T21:02:52;100862.81;;;1.17
28803;BMP280;15949;55.656;37.422;2023-05-07T21:07:58;100862.34;;;1.20
28803;BMP280;15949;55.656;37.422;2023-05-07T21:13:03;100866.16;;;1.05
28803;BMP280;15949;55.656;37.422;2023-05-07T21:18:10;100861.72;;;0.78
28803;BMP280;15949;55.656;37.422;2023-05-07T21:23:16;100874.47;;;0.61
28803;BMP280;15949;55.656;37.422;2023-05-07T21:28:21;100882.59;;;0.58
28803;BMP280;15949;55.656;37.422;2023-05-07T21:33:27;100887.06;;;0.39
28803;BMP280;15949;55.656;37.422;2023-05-07T21:38:32;100888.72;;;0.22
28803;BMP280;15949;55.656;37.422;2023-05-07T21:43:38;100889.09;;;0.07
28803;BMP280;15949;55.656;37.422;2023-05-07T21:48:44;100894.41;;;-0.06
28803;BMP280;15949;55.656;37.422;2023-05-07T21:53:49;100893.03;;;-0.20
28803;BMP280;15949;55.656;37.422;2023-05-07T21:58:55;100888.97;;;-0.27
28803;BMP280;15949;55.656;37.422;2023-05-07T22:04:01;100895.16;;;-0.35
28803;BMP280;15949;55.656;37.422;2023-05-07T22:09:06;100896.59;;;-0.39
28803;BMP280;15949;55.656;37.422;2023-05-07T22:14:12;100891.97;;;-0.30
28803;BMP280;15949;55.656;37.422;2023-05-07T22:19:17;100900.88;;;-0.33
28803;BMP280;15949;55.656;37.422;2023-05-07T22:24:23;100901.31;;;-0.36
28803;BMP280;15949;55.656;37.422;2023-05-07T22:29:29;100903.16;;;-0.43
28803;BMP280;15949;55.656;37.422;2023-05-07T22:34:34;100907.75;;;-0.45
28803;BMP280;15949;55.656;37.422;2023-05-07T22:39:40;100907.94;;;-0.47
28803;BMP280;15949;55.656;37.422;2023-05-07T22:44:46;100901.59;;;-0.44
28803;BMP280;15949;55.656;37.422;2023-05-07T22:49:51;100899.50;;;-0.35
28803;BMP280;15949;55.656;37.422;2023-05-07T22:54:57;100897.44;;;-0.27
28803;BMP280;15949;55.656;37.422;2023-05-07T23:00:03;100900.75;;;-0.08
28803;BMP280;15949;55.656;37.422;2023-05-07T23:05:09;100900.56;;;-0.25
28803;BMP280;15949;55.656;37.422;2023-05-07T23:10:15;100902.00;;;-0.29
28803;BMP280;15949;55.656;37.422;2023-05-07T23:15:20;100897.44;;;-0.27
28803;BMP280;15949;55.656;37.422;2023-05-07T23:20:26;100900.22;;;-0.28
28803;BMP280;15949;55.656;37.422;2023-05-07T23:25:31;100912.69;;;-0.32
28803;BMP280;15949;55.656;37.422;2023-05-07T23:30:38;100902.19;;;-0.42
28803;BMP280;15949;55.656;37.422;2023-05-07T23:35:44;100900.75;;;-0.56
28803;BMP280;15949;55.656;37.422;2023-05-07T23:40:52;100900.25;;;-0.65
28803;BMP280;15949;55.656;37.422;2023-05-07T23:45:57;100903.09;;;-0.73
28803;BMP280;15949;55.656;37.422;2023-05-07T23:51:03;100907.81;;;-0.76
28803;BMP280;15949;55.656;37.422;2023-05-07T23:56:09;100910.69;;;-0.84
